Time;durP1;ratioP1;P1;durP2;ratioP2;P2;SDS_P1;SDS_P2;PMS_P1;PMS_P2;Temp;Humidity;BMP_temperature;BMP_pressure;BME280_temperature;BME280_humidity;BME280_pressure;Samples;Min_cycle;Max_cycle;Signal;HPM_P1;HPM_P2
2024/03/29 00:02:19;;;;;;;0.00;0.00;;;;;;;-145.06;100.00;53145.16;10486335;28;20553;-69
2024/03/29 00:07:19;;;;;;;0.00;0.00;;;;;;;-145.06;100.00;53139.09;10488427;28;20017;-67
2024/03/29 00:12:19;;;;;;;0.07;0.07;;;;;;;-145.06;100.00;53169.47;10481917;28;20847;-67
2024/03/29 00:17:20;;;;;;;0.00;0.00;;;;;;;-145.06;100.00;53175.53;10484916;28;20319;-68
2024/03/29 00:22:20;;;;;;;0.00;0.00;;;;;;;-145.06;100.00;53159.34;10482266;28;20675;-67
2024/03/29 00:27:25;;;;;;;0.10;0.10;;;;;;;-145.06;100.00;53169.47;10486059;28;20720;-68
2024/03/29 00:32:26;;;;;;;0.00;0.00;;;;;;;-145.06;100.00;53179.59;10483716;28;20029;-67
2024/03/29 00:37:26;;;;;;;0.00;0.00;;;;;;;-145.06;100.00;53161.38;10488400;28;20028;-68
2024/03/29 00:42:26;;;;;;;0.00;0.00;;;;;;;-145.06;100.00;53183.66;10481647;28;20028;-68
2024/03/29 00:47:26;;;;;;;0.00;0.00;;;;;;;-145.06;100.00;53195.78;10487352;28;20032;-68
2024/03/29 00:52:27;;;;;;;0.00;0.00;;;;;;;-145.06;100.00;53212.00;10483477;28;20274;-68
2024/03/29 00:57:27;;;;;;;0.00;0.00;;;;;;;-145.06;100.00;53185.66;10481654;28;20355;-68
2024/03/29 01:02:27;;;;;;;0.00;0.00;;;;;;;-145.06;100.00;53179.59;10482291;28;20444;-68
2024/03/29 01:07:28;;;;;;;0.10;0.10;;;;;;;-145.06;100.00;53181.63;10480948;28;20020;-69
2024/03/29 01:12:28;;;;;;;0.10;0.10;;;;;;;-145.06;100.00;53218.06;10477287;28;20035;-69
2024/03/29 01:17:29;;;;;;;0.00;0.00;;;;;;;-145.06;100.00;53212.00;10481210;28;20028;-69
2024/03/29 01:22:29;;;;;;;0.00;0.00;;;;;;;-145.06;100.00;53199.84;10484244;28;20119;-69
2024/03/29 01:27:29;;;;;;;0.00;0.00;;;;;;;-145.06;100.00;53216.03;10480270;28;20017;-69
2024/03/29 01:32:30;;;;;;;0.00;0.00;;;;;;;-145.06;100.00;53230.22;10483686;28;20024;-69
2024/03/29 01:37:30;;;;;;;0.00;0.00;;;;;;;-145.06;100.00;53224.13;10484734;28;20023;-69
2024/03/29 01:42:30;;;;;;;0.00;0.00;;;;;;;-145.06;100.00;53214.00;10481317;28;20040;-69
2024/03/29 01:47:31;;;;;;;0.00;0.00;;;;;;;-145.06;100.00;53238.31;10479966;28;20017;-69
2024/03/29 01:52:31;;;;;;;0.10;0.10;;;;;;;-145.06;100.00;53232.25;10483842;28;20020;-69
2024/03/29 01:57:32;;;;;;;0.08;0.08;;;;;;;-145.06;100.00;53228.19;10483132;28;20025;-67
2024/03/29 02:02:33;;;;;;;0.00;0.00;;;;;;;-145.06;100.00;53216.03;10481505;28;20497;-67
2024/03/29 02:07:35;;;;;;;0.10;0.10;;;;;;;-145.06;100.00;53238.31;10481474;28;20329;-67
2024/03/29 02:12:35;;;;;;;0.00;0.00;;;;;;;-145.06;100.00;53226.16;10478240;28;20063;-67
2024/03/29 02:17:35;;;;;;;0.00;0.00;;;;;;;-145.06;100.00;53224.13;10478609;28;20506;-69
2024/03/29 02:22:45;;;;;;;0.00;0.00;;;;;;;-145.06;100.00;53199.84;10477760;28;20041;-68
2024/03/29 02:27:47;;;;;;;0.00;0.00;;;;;;;-145.06;100.00;53254.50;10475840;28;20016;-68
2024/03/29 02:32:48;;;;;;;0.00;0.00;;;;;;;-145.06;100.00;53258.56;10480456;28;20016;-68
2024/03/29 02:37:48;;;;;;;0.00;0.00;;;;;;;-145.06;100.00;53232.25;10484760;28;20020;-68
2024/03/29 02:42:49;;;;;;;0.00;0.00;;;;;;;-145.06;100.00;53254.50;10484223;28;20079;-68
2024/03/29 02:47:49;;;;;;;0.00;0.00;;;;;;;-145.06;100.00;53252.50;10489023;28;20103;-69
2024/03/29 02:52:50;;;;;;;0.00;0.00;;;;;;;-145.06;100.00;53246.41;10487649;28;20100;-69
2024/03/29 02:57:50;;;;;;;0.00;0.00;;;;;;;-145.06;100.00;53252.50;10485383;28;20388;-69
2024/03/29 03:02:50;;;;;;;0.00;0.00;;;;;;;-145.06;100.00;53240.34;10484338;28;20035;-69
2024/03/29 03:13:09;;;;;;;0.00;0.00;;;;;;;-145.06;100.00;53284.88;10485466;28;20028;-68
2024/03/29 03:18:09;;;;;;;0.00;0.00;;;;;;;-145.06;100.00;53280.84;10485987;28;20021;-68
2024/03/29 03:23:10;;;;;;;0.00;0.00;;;;;;;-145.06;100.00;53292.97;10486681;28;20020;-69
2024/03/29 03:28:10;;;;;;;0.00;0.00;;;;;;;-145.06;100.00;53270.72;10485205;28;20074;-68
2024/03/29 03:33:10;;;;;;;0.03;0.03;;;;;;;-145.06;100.00;53272.75;10482268;28;20029;-68
2024/03/29 03:38:11;;;;;;;0.00;0.00;;;;;;;-145.06;100.00;53309.19;10492449;28;20405;-69
2024/03/29 03:43:11;;;;;;;0.00;0.00;;;;;;;-145.06;100.00;53288.94;10488540;28;20469;-69
2024/03/29 03:48:12;;;;;;;0.00;0.00;;;;;;;-145.06;100.00;53276.78;10487194;28;20020;-68
2024/03/29 03:53:12;;;;;;;0.03;0.03;;;;;;;-145.06;100.00;53282.88;10487841;28;20275;-68
2024/03/29 03:58:12;;;;;;;0.10;0.10;;;;;;;-145.06;100.00;53305.13;10484287;28;20024;-68
2024/03/29 04:03:13;;;;;;;0.10;0.10;;;;;;;-145.06;100.00;53288.94;10479295;28;20032;-68
2024/03/29 04:08:14;;;;;;;0.10;0.10;;;;;;;-145.06;100.00;53311.22;10483461;28;20024;-68
2024/03/29 04:13:15;;;;;;;0.00;0.00;;;;;;;-145.06;100.00;53292.97;10483311;28;20119;-68
2024/03/29 04:18:15;;;;;;;0.00;0.00;;;;;;;-145.06;100.00;53301.09;10484637;28;20035;-68
2024/03/29 04:23:15;;;;;;;0.00;0.00;;;;;;;-145.06;100.00;53323.34;10484939;28;20547;-67
2024/03/29 04:28:16;;;;;;;0.00;0.00;;;;;;;-145.06;100.00;53309.19;10478321;28;20047;-68
2024/03/29 04:33:16;;;;;;;0.00;0.00;;;;;;;-145.06;100.00;53301.09;10485782;28;20029;-67
2024/03/29 04:38:16;;;;;;;0.00;0.00;;;;;;;-145.06;100.00;53311.22;10479794;28;20043;-68
2024/03/29 04:43:17;;;;;;;0.00;0.00;;;;;;;-145.06;100.00;53315.25;10480373;28;20012;-67
2024/03/29 04:48:17;;;;;;;0.00;0.00;;;;;;;-145.06;100.00;53288.94;10481045;28;20623;-70
2024/03/29 04:53:17;;;;;;;0.00;0.00;;;;;;;-145.06;100.00;53288.94;10481623;28;20025;-68
2024/03/29 04:58:18;;;;;;;0.00;0.00;;;;;;;-145.06;100.00;53282.88;10482772;28;20032;-68
2024/03/29 05:03:18;;;;;;;0.00;0.00;;;;;;;-145.06;100.00;53286.91;10482589;28;20024;-68
2024/03/29 05:08:21;;;;;;;0.00;0.00;;;;;;;-145.06;100.00;53260.59;10483591;28;20016;-68
2024/03/29 05:13:21;;;;;;;0.00;0.00;;;;;;;-145.06;100.00;53268.69;10481124;28;20024;-68
2024/03/29 05:18:21;;;;;;;0.00;0.00;;;;;;;-145.06;100.00;53254.50;10480168;28;20024;-69
2024/03/29 05:23:22;;;;;;;0.00;0.00;;;;;;;-145.06;100.00;53282.88;10480057;28;20016;-68
2024/03/29 05:28:22;;;;;;;0.00;0.00;;;;;;;-145.06;100.00;53250.47;10480321;28;20024;-68
2024/03/29 05:33:22;;;;;;;0.00;0.00;;;;;;;-145.06;100.00;53262.63;10478500;28;20481;-67
2024/03/29 05:38:22;;;;;;;0.00;0.00;;;;;;;-145.06;100.00;53286.91;10481580;28;20119;-68
2024/03/29 05:43:23;;;;;;;0.00;0.00;;;;;;;-145.06;100.00;53268.69;10479903;28;20012;-67
2024/03/29 05:48:23;;;;;;;0.00;0.00;;;;;;;-145.06;100.00;53256.53;10476966;28;20028;-68
2024/03/29 05:53:24;;;;;;;0.10;0.10;;;;;;;-145.06;100.00;53282.88;10480402;28;20285;-67
2024/03/29 05:58:24;;;;;;;0.10;0.10;;;;;;;-145.06;100.00;53264.63;10483511;28;20050;-68
2024/03/29 06:03:24;;;;;;;0.03;0.03;;;;;;;-145.06;100.00;53252.50;10480595;28;20036;-68
2024/03/29 06:08:26;;;;;;;0.00;0.00;;;;;;;-145.06;100.00;53256.53;10479431;28;21201;-67
2024/03/29 06:17:22;;;;;;;0.00;0.00;;;;;;;-145.06;100.00;53234.25;10480226;28;20016;-67
2024/03/29 06:18:50;;;;;;;0.00;0.00;;;;;;;-145.06;100.00;53254.50;10477496;28;20462;-69
2024/03/29 06:23:50;;;;;;;0.10;0.10;;;;;;;-145.06;100.00;53248.44;10479822;28;20013;-69
2024/03/29 06:28:50;;;;;;;0.00;0.00;;;;;;;-145.06;100.00;53242.38;10482858;28;20020;-70
2024/03/29 06:33:51;;;;;;;0.00;0.00;;;;;;;-145.06;100.00;53228.19;10476456;28;20039;-69
2024/03/29 06:38:52;;;;;;;0.00;0.00;;;;;;;-145.06;100.00;53236.28;10480946;28;20021;-69
2024/03/29 06:43:52;;;;;;;0.05;0.05;;;;;;;-145.06;100.00;53228.19;10480429;28;20066;-67
2024/03/29 06:48:52;;;;;;;0.10;0.10;;;;;;;-145.06;100.00;53203.91;10477435;28;20027;-69
2024/03/29 06:53:53;;;;;;;0.00;0.00;;;;;;;-145.06;100.00;53224.13;10482199;28;20032;-67
2024/03/29 06:58:53;;;;;;;0.00;0.00;;;;;;;-145.06;100.00;53209.97;10480047;28;20390;-68
2024/03/29 07:03:53;;;;;;;0.00;0.00;;;;;;;-145.06;100.00;53189.72;10481988;28;20027;-68
2024/03/29 07:08:54;;;;;;;0.10;0.10;;;;;;;-145.06;100.00;53171.50;10481566;28;20021;-68
2024/03/29 07:13:54;;;;;;;0.05;0.05;;;;;;;-145.06;100.00;53163.41;10476259;28;20287;-68
2024/03/29 07:18:54;;;;;;;0.00;0.00;;;;;;;-145.06;100.00;53175.53;10473273;28;20261;-69
2024/03/29 07:23:54;;;;;;;0.00;0.00;;;;;;;-145.06;100.00;53135.06;10474347;28;20032;-67
2024/03/29 07:28:55;;;;;;;0.00;0.00;;;;;;;-145.06;99.12;53143.16;10477873;28;20025;-67
2024/03/29 07:33:55;;;;;;;0.10;0.10;;;;;;;-145.06;99.97;53100.63;10471544;28;20021;-67
2024/03/29 07:38:55;;;;;;;0.00;0.00;;;;;;;-145.06;98.42;53108.72;10474271;28;20017;-67
2024/03/29 07:43:59;;;;;;;0.00;0.00;;;;;;;-145.06;98.10;53112.78;10471474;28;20020;-67
2024/03/29 07:49:00;;;;;;;0.10;0.10;;;;;;;-145.06;95.20;53116.81;10473587;28;20032;-68
2024/03/29 07:54:00;;;;;;;0.10;0.10;;;;;;;-145.06;97.08;53074.31;10469110;28;20029;-67
2024/03/29 07:59:00;;;;;;;0.00;0.00;;;;;;;-145.06;96.19;53084.44;10471853;28;20023;-67
2024/03/29 08:04:02;;;;;;;0.10;0.10;;;;;;;-145.06;95.52;53082.41;10469418;28;20017;-67
2024/03/29 08:09:02;;;;;;;0.00;0.00;;;;;;;-145.06;97.56;53027.75;10470104;28;20052;-68
2024/03/29 08:14:03;;;;;;;0.10;0.10;;;;;;;-145.06;97.53;53033.81;10475056;28;20119;-68
2024/03/29 08:19:03;;;;;;;0.10;0.10;;;;;;;-145.06;96.73;53015.59;10468646;28;20274;-68
2024/03/29 08:24:04;;;;;;;0.03;0.03;;;;;;;-145.06;96.77;53027.75;10468432;28;20112;-69
2024/03/29 08:29:04;;;;;;;0.10;0.10;;;;;;;-145.06;98.59;53029.75;10469964;28;20115;-68
2024/03/29 08:34:06;;;;;;;0.00;0.00;;;;;;;-145.06;99.61;52952.81;10471305;28;20020;-68
2024/03/29 08:39:06;;;;;;;0.00;0.00;;;;;;;-145.06;99.16;52997.38;10470994;28;20017;-68
2024/03/29 08:44:07;;;;;;;0.00;0.00;;;;;;;-145.06;99.04;52985.22;10469320;28;20019;-67
2024/03/29 08:49:07;;;;;;;0.10;0.10;;;;;;;-145.06;100.00;52991.28;10467006;28;20048;-68
2024/03/29 08:54:07;;;;;;;0.10;0.10;;;;;;;-145.06;99.99;52979.16;10468874;28;20024;-69
2024/03/29 08:59:09;;;;;;;0.10;0.10;;;;;;;-145.06;100.00;52926.50;10470164;28;20012;-69
2024/03/29 09:04:11;;;;;;;0.05;0.05;;;;;;;-145.06;98.32;52926.50;10470288;28;20500;-69
2024/03/29 09:09:11;;;;;;;0.10;0.10;;;;;;;-145.06;99.31;52898.16;10471793;28;20024;-68
2024/03/29 09:14:12;;;;;;;0.10;0.10;;;;;;;-145.06;97.06;52922.44;10473282;28;20044;-68
2024/03/29 09:19:13;;;;;;;0.10;0.10;;;;;;;-145.06;96.83;52859.69;10472847;28;20713;-68
2024/03/29 09:24:14;;;;;;;0.00;0.00;;;;;;;-145.06;96.74;52861.72;10473498;28;20028;-69
2024/03/29 09:29:15;;;;;;;0.10;0.10;;;;;;;-145.06;95.74;52886.00;10466115;28;20027;-68
2024/03/29 09:34:16;;;;;;;0.00;0.00;;;;;;;-145.06;97.08;52861.72;10470096;28;20024;-70
2024/03/29 09:39:16;;;;;;;0.10;0.10;;;;;;;-145.06;97.17;52904.22;10468143;28;20024;-71
2024/03/29 09:44:21;;;;;;;0.10;0.10;;;;;;;-145.06;96.02;52942.69;10471532;28;20012;-70
2024/03/29 09:49:21;;;;;;;0.10;0.10;;;;;;;-145.06;96.43;52950.81;10464899;28;20027;-70
2024/03/29 09:54:22;;;;;;;0.10;0.10;;;;;;;-145.06;98.71;52916.38;10468421;28;20024;-68
2024/03/29 09:59:24;;;;;;;0.05;0.05;;;;;;;-145.06;99.56;52944.72;10470259;28;20421;-69
2024/03/29 10:04:25;;;;;;;0.10;0.10;;;;;;;-145.06;99.57;52971.03;10468448;28;20028;-69
2024/03/29 10:09:29;;;;;;;0.10;0.10;;;;;;;-145.06;100.00;52904.22;10470755;28;20016;-70
2024/03/29 10:14:31;;;;;;;0.08;0.08;;;;;;;-145.06;99.93;52928.53;10466792;28;20029;-69
2024/03/29 10:19:31;;;;;;;0.00;0.00;;;;;;;-145.06;100.00;52892.09;10473451;28;20060;-69
2024/03/29 10:24:33;;;;;;;0.10;0.10;;;;;;;-145.06;100.00;52782.75;10467275;28;20104;-69
2024/03/29 10:29:33;;;;;;;0.10;0.10;;;;;;;-145.06;96.80;52770.59;10470411;28;20017;-69
2024/03/29 10:34:36;;;;;;;0.10;0.10;;;;;;;-145.06;97.18;52784.78;10469945;28;20048;-69
2024/03/29 10:39:36;;;;;;;0.10;0.10;;;;;;;-145.06;96.30;52811.09;10473632;28;20024;-69
2024/03/29 10:44:39;;;;;;;0.10;0.10;;;;;;;-145.06;98.37;52805.03;10476900;28;20021;-70
2024/03/29 10:49:40;;;;;;;0.10;0.10;;;;;;;-145.06;99.31;52833.38;10476455;28;20833;-69
2024/03/29 10:54:43;;;;;;;0.10;0.10;;;;;;;-145.06;100.00;52794.91;10484142;28;20021;-69
2024/03/29 10:59:49;;;;;;;0.10;0.10;;;;;;;-145.06;100.00;52817.19;10482926;28;20462;-72
2024/03/29 11:04:51;;;;;;;0.10;0.10;;;;;;;-145.06;100.00;52817.19;10479547;28;20099;-69
2024/03/29 11:09:59;;;;;;;0.10;0.10;;;;;;;-145.06;100.00;52809.06;10486144;28;20100;-70
2024/03/29 11:15:04;;;;;;;0.10;0.10;;;;;;;-145.06;100.00;52827.28;10487097;28;20105;-70
2024/03/29 11:20:05;;;;;;;0.10;0.10;;;;;;;-145.06;100.00;52782.75;10484052;28;20107;-73
2024/03/29 11:25:07;;;;;;;0.10;0.10;;;;;;;-145.06;100.00;52778.72;10482956;28;20131;-70
2024/03/29 11:30:08;;;;;;;0.00;0.00;;;;;;;-145.06;100.00;52742.25;10488732;28;20029;-69
2024/03/29 11:35:16;;;;;;;0.08;0.08;;;;;;;-145.06;100.00;52726.06;10491281;28;20021;-70
2024/03/29 11:40:16;;;;;;;0.00;0.00;;;;;;;-145.06;100.00;52748.34;10483990;28;20024;-70
2024/03/29 11:45:16;;;;;;;0.10;0.10;;;;;;;-145.06;100.00;52726.06;10484966;28;20024;-69
2024/03/29 11:50:17;;;;;;;0.10;0.10;;;;;;;-145.06;100.00;52701.78;10480550;28;20024;-70
2024/03/29 11:55:18;;;;;;;0.10;0.10;;;;;;;-145.06;100.00;52645.09;10486087;28;20304;-69
2024/03/29 12:00:18;;;;;;;0.00;0.00;;;;;;;-145.06;98.62;52600.53;10482035;28;20029;-68
2024/03/29 12:05:19;;;;;;;0.10;0.10;;;;;;;-145.06;96.22;52549.94;10484985;28;20021;-70
2024/03/29 12:10:19;;;;;;;0.00;0.00;;;;;;;-145.06;95.11;52527.66;10480655;28;20036;-70
2024/03/29 12:15:19;;;;;;;0.10;0.10;;;;;;;-145.06;91.61;52560.06;10480060;28;20048;-69
2024/03/29 12:20:20;;;;;;;0.05;0.05;;;;;;;-145.06;92.67;52558.03;10482743;28;20297;-69
2024/03/29 12:25:21;;;;;;;0.10;0.10;;;;;;;-145.06;92.63;52523.63;10479292;28;20017;-69
2024/03/29 12:30:22;;;;;;;0.10;0.10;;;;;;;-145.06;91.45;52473.00;10484058;28;20093;-68
2024/03/29 12:35:22;;;;;;;0.10;0.10;;;;;;;-145.06;93.19;52495.28;10484761;28;20108;-69
2024/03/29 12:40:24;;;;;;;0.10;0.10;;;;;;;-145.06;88.45;52485.16;10486403;28;20020;-68
2024/03/29 12:45:27;;;;;;;0.10;0.10;;;;;;;-145.06;90.13;52462.88;10481710;28;20027;-68
2024/03/29 12:50:32;;;;;;;0.10;0.10;;;;;;;-145.06;86.93;52440.63;10473400;28;20023;-69
2024/03/29 12:55:36;;;;;;;0.10;0.10;;;;;;;-145.06;89.05;52385.97;10476353;28;20119;-69
2024/03/29 13:00:36;;;;;;;0.00;0.00;;;;;;;-145.06;85.85;52361.66;10476400;28;20486;-69
2024/03/29 13:05:41;;;;;;;0.00;0.00;;;;;;;-145.06;85.96;52361.66;10478458;28;20021;-69
2024/03/29 13:10:42;;;;;;;0.10;0.10;;;;;;;-145.06;85.50;52383.94;10468811;28;20019;-69
2024/03/29 13:15:43;;;;;;;0.00;0.00;;;;;;;-145.06;84.76;52468.97;10478777;28;20016;-69
2024/03/29 13:20:43;;;;;;;0.00;0.00;;;;;;;-145.06;85.38;52551.97;10484008;28;20025;-68
2024/03/29 13:25:43;;;;;;;0.10;0.10;;;;;;;-145.06;87.68;52604.59;10485457;28;20377;-67
2024/03/29 13:30:45;;;;;;;0.10;0.10;;;;;;;-145.06;91.72;52551.97;10472743;28;20291;-67
2024/03/29 13:35:45;;;;;;;0.10;0.10;;;;;;;-145.06;90.91;52566.13;10480527;28;20282;-68
2024/03/29 13:40:47;;;;;;;0.10;0.10;;;;;;;-145.06;90.55;52576.25;10477448;28;20029;-68
2024/03/29 13:45:47;;;;;;;0.10;0.10;;;;;;;-145.06;90.40;52584.34;10481671;28;20020;-67
2024/03/29 13:50:47;;;;;;;0.10;0.10;;;;;;;-145.06;91.62;52602.56;10477260;28;20024;-68
2024/03/29 13:55:47;;;;;;;0.10;0.10;;;;;;;-145.06;93.44;52584.34;10487343;28;20022;-67
2024/03/29 14:00:50;;;;;;;0.07;0.07;;;;;;;-145.06;92.26;52574.22;10477241;28;20111;-67
2024/03/29 14:05:50;;;;;;;0.00;0.00;;;;;;;-145.06;89.95;52584.34;10481058;28;20055;-67
2024/03/29 14:10:52;;;;;;;0.10;0.10;;;;;;;-145.06;91.92;52586.38;10473052;28;20067;-68
2024/03/29 14:15:55;;;;;;;0.10;0.10;;;;;;;-145.06;93.19;52568.16;10478085;28;20021;-68
2024/03/29 14:20:57;;;;;;;0.10;0.10;;;;;;;-145.06;93.05;52576.25;10476918;28;20027;-68
2024/03/29 14:25:57;;;;;;;0.00;0.00;;;;;;;-145.06;93.79;52487.19;10471470;28;20075;-67
2024/03/29 14:30:57;;;;;;;0.00;0.00;;;;;;;-145.06;93.34;52473.00;10485991;28;20036;-67
2024/03/29 14:35:58;;;;;;;0.10;0.10;;;;;;;-145.06;94.74;52460.84;10487714;28;20021;-67
2024/03/29 14:40:58;;;;;;;0.10;0.10;;;;;;;-145.06;93.19;52481.09;10481852;28;20082;-67
2024/03/29 14:45:59;;;;;;;0.00;0.00;;;;;;;-145.06;92.82;52521.59;10484150;28;20044;-67
2024/03/29 14:50:59;;;;;;;0.10;0.10;;;;;;;-145.06;91.95;52525.63;10483325;28;20021;-67
2024/03/29 14:56:02;;;;;;;0.10;0.10;;;;;;;-145.06;93.42;52470.97;10483168;28;20017;-67
2024/03/29 15:01:02;;;;;;;0.00;0.00;;;;;;;-145.06;91.08;52507.41;10480351;28;20017;-67
2024/03/29 15:06:03;;;;;;;0.10;0.10;;;;;;;-145.06;88.61;52539.81;10478263;28;20017;-68
2024/03/29 15:11:03;;;;;;;0.10;0.10;;;;;;;-145.06;90.65;52513.50;10483826;28;20266;-67
2024/03/29 15:16:04;;;;;;;0.10;0.10;;;;;;;-145.06;93.26;52519.56;10482619;28;20117;-68
2024/03/29 15:21:05;;;;;;;0.03;0.03;;;;;;;-145.06;94.63;52517.53;10478848;28;20032;-68
2024/03/29 15:26:05;;;;;;;0.10;0.10;;;;;;;-145.06;94.98;52545.88;10476911;28;20029;-69
2024/03/29 15:31:17;;;;;;;0.10;0.10;;;;;;;-145.06;95.95;52493.25;10475437;28;20077;-69
2024/03/29 15:36:18;;;;;;;0.00;0.00;;;;;;;-145.06;95.29;52473.00;10475845;28;20035;-68
2024/03/29 15:41:19;;;;;;;0.00;0.00;;;;;;;-145.06;96.34;52503.38;10473561;28;20401;-68
2024/03/29 15:46:19;;;;;;;0.10;0.10;;;;;;;-145.06;95.62;52503.38;10481441;28;20111;-68
2024/03/29 15:51:19;;;;;;;0.10;0.10;;;;;;;-145.06;92.74;52531.72;10483263;28;20027;-68
2024/03/29 15:56:21;;;;;;;0.00;0.00;;;;;;;-145.06;90.05;52568.16;10473572;28;20485;-68
2024/03/29 16:01:21;;;;;;;0.10;0.10;;;;;;;-145.06;91.56;52539.81;10483485;28;20032;-69
2024/03/29 16:06:22;;;;;;;0.10;0.10;;;;;;;-145.06;89.12;52531.72;10480663;28;20086;-69
2024/03/29 16:11:22;;;;;;;0.10;0.10;;;;;;;-145.06;86.00;52551.97;10475289;28;20078;-68
2024/03/29 16:16:22;;;;;;;0.10;0.10;;;;;;;-145.06;88.54;52531.72;10484750;28;20016;-69
2024/03/29 16:21:23;;;;;;;0.10;0.10;;;;;;;-145.06;88.88;52541.84;10476926;28;20024;-69
2024/03/29 16:26:23;;;;;;;0.00;0.00;;;;;;;-145.06;87.70;52551.97;10479096;28;20561;-68
2024/03/29 16:31:24;;;;;;;0.10;0.10;;;;;;;-145.06;89.50;52584.34;10475953;28;20017;-68
2024/03/29 16:36:24;;;;;;;0.10;0.10;;;;;;;-145.06;91.40;52564.09;10482348;28;20021;-69
2024/03/29 16:41:24;;;;;;;0.00;0.00;;;;;;;-145.06;92.63;52572.19;10467192;28;20096;-66
2024/03/29 16:46:25;;;;;;;0.10;0.10;;;;;;;-145.06;93.15;52576.25;10478569;28;20496;-68
2024/03/29 16:51:25;;;;;;;0.10;0.10;;;;;;;-145.06;93.16;52624.84;10477431;28;20039;-67
2024/03/29 16:56:25;;;;;;;0.10;0.10;;;;;;;-145.06;94.74;52624.84;10475215;28;20490;-68
2024/03/29 17:01:25;;;;;;;0.05;0.05;;;;;;;-145.06;94.63;52665.34;10472978;28;20033;-69
2024/03/29 17:06:26;;;;;;;0.10;0.10;;;;;;;-145.06;94.94;52657.22;10474605;28;20088;-68
2024/03/29 17:11:26;;;;;;;0.10;0.10;;;;;;;-145.06;94.95;52675.44;10472213;28;20041;-68
2024/03/29 17:16:26;;;;;;;0.10;0.10;;;;;;;-145.06;95.54;52699.75;10472141;28;20040;-68
2024/03/29 17:21:27;;;;;;;0.10;0.10;;;;;;;-145.06;96.62;52691.66;10470429;28;20028;-68
2024/03/29 17:26:27;;;;;;;0.10;0.10;;;;;;;-145.06;97.83;52742.25;10477036;28;20263;-68
2024/03/29 17:31:27;;;;;;;0.10;0.10;;;;;;;-145.06;98.57;52728.09;10478679;28;20020;-69
2024/03/29 17:36:28;;;;;;;0.08;0.08;;;;;;;-145.06;100.00;52746.31;10474396;28;20459;-69
2024/03/29 17:41:28;;;;;;;0.10;0.10;;;;;;;-145.06;100.00;52742.25;10474136;28;20093;-70
2024/03/29 17:46:29;;;;;;;0.10;0.10;;;;;;;-145.06;100.00;52734.16;10474308;28;20021;-68
2024/03/29 17:51:29;;;;;;;0.10;0.10;;;;;;;-145.06;100.00;52770.59;10472185;28;20489;-68
2024/03/29 17:56:29;;;;;;;0.00;0.00;;;;;;;-145.06;100.00;52778.72;10467961;28;20024;-68
2024/03/29 18:01:29;;;;;;;0.10;0.10;;;;;;;-145.06;100.00;52792.88;10470097;28;20021;-68
2024/03/29 18:06:31;;;;;;;0.10;0.10;;;;;;;-145.06;100.00;52833.38;10468891;28;20498;-69
2024/03/29 18:11:31;;;;;;;0.00;0.00;;;;;;;-145.06;100.00;52819.19;10474995;28;20017;-68
2024/03/29 18:16:31;;;;;;;0.10;0.10;;;;;;;-145.06;100.00;52829.31;10479329;28;20031;-68
2024/03/29 18:21:32;;;;;;;0.10;0.10;;;;;;;-145.06;100.00;52839.44;10469888;28;20585;-68
2024/03/29 18:26:32;;;;;;;0.00;0.00;;;;;;;-145.06;100.00;52811.09;10471568;28;20470;-69
2024/03/29 18:31:32;;;;;;;0.10;0.10;;;;;;;-145.06;100.00;52827.28;10478942;28;20583;-68
2024/03/29 18:36:33;;;;;;;0.10;0.10;;;;;;;-145.06;100.00;52794.91;10464949;28;20481;-70
2024/03/29 18:41:34;;;;;;;0.10;0.10;;;;;;;-145.06;100.00;52790.84;10474039;28;20093;-69
2024/03/29 18:46:34;;;;;;;0.10;0.10;;;;;;;-145.06;100.00;52819.19;10466033;28;20012;-68
2024/03/29 18:51:35;;;;;;;0.00;0.00;;;;;;;-145.06;100.00;52811.09;10466527;28;20020;-69
2024/03/29 18:56:35;;;;;;;0.10;0.10;;;;;;;-145.06;100.00;52831.34;10461533;28;20486;-68
2024/03/29 19:01:35;;;;;;;0.00;0.00;;;;;;;-145.06;100.00;52839.44;10467035;28;20103;-68
2024/03/29 19:06:35;;;;;;;0.10;0.10;;;;;;;-145.06;100.00;52863.75;10464072;28;20029;-69
2024/03/29 19:11:36;;;;;;;0.10;0.10;;;;;;;-145.06;100.00;52871.84;10469653;28;20036;-68
2024/03/29 19:16:36;;;;;;;0.10;0.10;;;;;;;-145.06;100.00;52890.06;10477916;28;20040;-70
2024/03/29 19:21:38;;;;;;;0.10;0.10;;;;;;;-145.06;100.00;52813.13;10466946;28;20476;-69
2024/03/29 19:26:38;;;;;;;0.10;0.10;;;;;;;-145.06;100.00;52794.91;10475753;28;20028;-68
2024/03/29 19:31:40;;;;;;;0.10;0.10;;;;;;;-145.06;100.00;52752.38;10473771;28;20438;-68
2024/03/29 19:36:42;;;;;;;0.00;0.00;;;;;;;-145.06;100.00;52744.28;10476791;28;20055;-69
2024/03/29 19:41:42;;;;;;;0.10;0.10;;;;;;;-145.06;100.00;52746.31;10476301;28;20028;-69
2024/03/29 19:46:42;;;;;;;0.10;0.10;;;;;;;-145.06;100.00;52724.03;10477459;28;20470;-68
2024/03/29 19:51:43;;;;;;;0.10;0.10;;;;;;;-145.06;100.00;52726.06;10474007;28;20029;-69
2024/03/29 19:56:44;;;;;;;0.10;0.10;;;;;;;-145.06;100.00;52754.41;10471678;28;20033;-69
2024/03/29 20:01:44;;;;;;;0.10;0.10;;;;;;;-145.06;100.00;52709.88;10471525;28;20057;-68
2024/03/29 20:06:45;;;;;;;0.10;0.10;;;;;;;-145.06;100.00;52742.25;10477721;28;20389;-68
2024/03/29 20:11:45;;;;;;;0.00;0.00;;;;;;;-145.06;100.00;52675.44;10481080;28;20028;-68
2024/03/29 20:16:45;;;;;;;0.10;0.10;;;;;;;-145.06;100.00;52705.81;10477381;28;20178;-69
2024/03/29 20:21:46;;;;;;;0.10;0.10;;;;;;;-145.06;100.00;52653.19;10475401;28;20017;-68
2024/03/29 20:26:46;;;;;;;0.00;0.00;;;;;;;-145.06;100.00;52618.75;10474500;28;20259;-68
2024/03/29 20:31:52;;;;;;;0.00;0.00;;;;;;;-145.06;100.00;52657.22;10471913;28;20025;-68
2024/03/29 20:36:52;;;;;;;0.10;0.10;;;;;;;-145.06;100.00;52673.44;10473061;28;20134;-68
2024/03/29 20:41:53;;;;;;;0.10;0.10;;;;;;;-145.06;100.00;52639.00;10477401;28;20048;-69
2024/03/29 20:46:53;;;;;;;0.10;0.10;;;;;;;-145.06;100.00;52653.19;10478651;28;20498;-68
2024/03/29 20:51:53;;;;;;;0.10;0.10;;;;;;;-145.06;100.00;52687.59;10474861;28;20402;-68
2024/03/29 20:56:54;;;;;;;0.10;0.10;;;;;;;-145.06;100.00;52673.44;10475499;28;20280;-68
2024/03/29 21:07:13;;;;;;;0.10;0.10;;;;;;;-145.06;100.00;52596.50;10475480;28;20025;-69
2024/03/29 21:12:13;;;;;;;0.10;0.10;;;;;;;-145.06;100.00;52604.59;10473648;28;20021;-69
2024/03/29 21:17:14;;;;;;;0.10;0.10;;;;;;;-145.06;100.00;52572.19;10474281;28;20036;-68
2024/03/29 21:22:14;;;;;;;0.10;0.10;;;;;;;-145.06;100.00;52513.50;10470587;28;20419;-69
2024/03/29 21:27:14;;;;;;;0.10;0.10;;;;;;;-145.06;100.00;52523.63;10469330;28;20540;-68
2024/03/29 21:32:15;;;;;;;0.00;0.00;;;;;;;-145.06;100.00;52507.41;10468411;28;20259;-68
2024/03/29 21:37:15;;;;;;;0.10;0.10;;;;;;;-145.06;100.00;52560.06;10468629;28;20054;-69
2024/03/29 21:42:15;;;;;;;0.10;0.10;;;;;;;-145.06;100.00;52466.94;10470005;28;20113;-68
2024/03/29 21:47:16;;;;;;;0.10;0.10;;;;;;;-145.06;100.00;52481.09;10468473;28;20102;-69
2024/03/29 21:52:17;;;;;;;0.08;0.08;;;;;;;-145.06;100.00;52477.06;10471836;28;20504;-69
2024/03/29 21:57:17;;;;;;;0.10;0.10;;;;;;;-145.06;100.00;52442.63;10470696;28;20066;-69
2024/03/29 22:02:18;;;;;;;0.10;0.10;;;;;;;-145.06;100.00;52450.75;10467917;28;20443;-69
2024/03/29 22:07:18;;;;;;;0.00;0.00;;;;;;;-145.06;100.00;52473.00;10469302;28;20013;-69
2024/03/29 22:12:18;;;;;;;0.10;0.10;;;;;;;-145.06;100.00;52438.59;10469223;28;20271;-69
2024/03/29 22:17:18;;;;;;;0.10;0.10;;;;;;;-145.06;100.00;52442.63;10467775;28;20024;-70
2024/03/29 22:22:19;;;;;;;0.10;0.10;;;;;;;-145.06;100.00;52430.50;10466403;28;20030;-69
2024/03/29 22:27:19;;;;;;;0.10;0.10;;;;;;;-145.06;100.00;52430.50;10468227;28;20417;-69
2024/03/29 22:32:19;;;;;;;0.10;0.10;;;;;;;-145.06;100.00;52414.28;10463934;28;20031;-69
2024/03/29 22:37:20;;;;;;;0.00;0.00;;;;;;;-145.06;100.00;52353.56;10467693;28;20074;-69
2024/03/29 22:42:20;;;;;;;0.00;0.00;;;;;;;-145.06;100.00;52414.28;10470515;28;20800;-68
2024/03/29 22:47:20;;;;;;;0.10;0.10;;;;;;;-145.06;100.00;52392.03;10468047;28;20021;-69